Terminal Aerodrome Forecast
Issued by NWS Denver/Boulder, CO

Home | Current Version | Previous Version | Text Only | Print | Product List | Glossary On
Versions: 1 2 3 4 5 6 7 8 9 10 11 12 13 14 15 16 17 18 19 20 21 22 23 24 25 26 27 28 29
000
FTUS45 KBOU 230356 AAC
TAFDEN
TAF AMD
KDEN 230356Z 2304/2406 30008KT P6SM VCSH SCT090 BKN130
     FM230600 23010KT P6SM SCT130
     FM231700 03007KT P6SM FEW090 SCT130
     FM232200 05008KT P6SM SCT090 BKN130 PROB30 2323/2403 VRB15G28KT
      -TSRA BKN090CB
     FM240300 18010KT P6SM FEW090 SCT130 BKN200=

USA.gov is the U.S. government's official web portal to all federal, state and local government web resources and services.